Airfield :
LOGIN :

Register | Disclaimer

   EN    FR    IT 

 










Legend :    VFR   Marginal VFR   IFR   Intensive IFR   Very Intensive IFR
Visi :
Ceiling :
>= 8 km
>= 3000ft
5 to 8 km
1000 to 3000 ft
1500m to 5 km
500 to 1000 ft
800 to 1500m
200 to 500 ft
< 800m
< 200 ft
Symbols :   Thunderstorms  Fog  Heavy snow  Heavy precipitations  Wind > 20 kt
SIGMETs :     Misc.  Thunderstorms  Icing  Turbulence  Mountain Waves  Volcanic Ashes







- Airport Elevation : 622 ft
- IATA code : BRS
- Download approach charts


EGGD - Bristol Int.

CURRENT METAR :
  • 161350Z AUTO 22008KT 9999 BKN010 BKN016 OVC035 15/14 Q1015

EXPIRED METARs :
  • 161320Z AUTO 21008KT 9999 BKN009 OVC032 15/14 Q1015
  • 161250Z AUTO 20008KT 9999 BKN007 OVC036 15/14 Q1015
  • 161220Z AUTO 21008KT 9999 BKN006 OVC036 14/14 Q1015
  • 161150Z AUTO 20006KT 9999 BKN004 OVC036 14/14 Q1015
  • 161120Z AUTO 20005KT 150V240 8000 BKN003 OVC015 14/14 Q1015

TAF TAF EGGD
Valid from the 16 at 12:00 until the 17 at 12:00 UTC


161104Z 1612/1712 22010KT 6000 BKN005
BECMG 1612/1615 9999 SCT020
PROB30
TEMPO 1614/1620 BKN014
BECMG 1622/1701 5000 BR OVC004
TEMPO 1701/1706 1200 -RADZ BKN001
PROB40
TEMPO 1701/1707 0300 DZ FG
BECMG 1707/1710 33010KT 9999 NSW FEW025
BECMG 1710/1712 03006KT
ATIS : +44 1275 473 666
No reported NOTAMs for that airfield.



MET'MAP, your aeronautical weather chart ! - Copyright ORBIFLY December 2007 - Disclaimer

ORBIFLY MET'MAP TEAM :

Programming & Development : Alexandra Zaïnal
Concept & Development : Baudouin d'Aumeries
Co-Development & Prog : Marc-Olivier Méhu
Technical & hardware support : Manuel Goepfert

Contact : metmap@orbifly.com




SOURCES & CREDITS :

   NOAA